Time;durP1;ratioP1;P1;durP2;ratioP2;P2;SDS_P1;SDS_P2;PMS_P1;PMS_P2;Temp;Humidity;BMP_temperature;BMP_pressure;BME280_temperature;BME280_humidity;BME280_pressure;Samples;Min_cycle;Max_cycle;Signal;HPM_P1;HPM_P2
2022/09/29 00:00:07;;;;;;;4.10;2.20;;;;;;;15.43;62.21;97525.97;227420;1241;139293;-66
2022/09/29 00:05:30;;;;;;;3.70;2.00;;;;;;;15.40;62.38;97522.55;227585;1231;139334;-65
2022/09/29 00:10:33;;;;;;;3.60;2.10;;;;;;;15.40;62.60;97525.36;226206;1235;141357;-65
2022/09/29 00:15:36;;;;;;;3.90;2.00;;;;;;;15.39;62.67;97521.20;226010;1235;138666;-66
2022/09/29 00:20:39;;;;;;;4.20;2.20;;;;;;;15.35;62.80;97520.52;226208;1250;138870;-66
2022/09/29 00:25:42;;;;;;;3.70;2.20;;;;;;;15.32;63.02;97527.41;226657;1233;139117;-68
2022/09/29 00:30:45;;;;;;;3.40;2.20;;;;;;;15.35;63.33;97530.14;226256;1243;139517;-65
2022/09/29 00:36:04;;;;;;;3.60;2.60;;;;;;;15.35;63.31;97538.04;226501;1243;139141;-70
2022/09/29 00:41:12;;;;;;;6.20;2.80;;;;;;;15.36;63.44;97541.66;226375;1245;139892;-69
2022/09/29 00:46:18;;;;;;;11.10;4.10;;;;;;;15.41;63.20;97546.23;226291;1238;139332;-71
2022/09/29 00:51:21;;;;;;;6.20;4.30;;;;;;;15.44;63.46;97549.80;226203;1243;139116;-70
2022/09/29 00:56:24;;;;;;;7.70;4.80;;;;;;;15.47;63.40;97560.23;226169;1245;140369;-72
2022/09/29 01:01:36;;;;;;;9.30;5.30;;;;;;;15.49;63.42;97556.23;226318;1240;139268;-68
2022/09/29 01:07:36;;;;;;;8.50;5.30;;;;;;;15.45;63.33;97565.02;228656;1206;138943;31
2022/09/29 01:12:40;;;;;;;8.30;5.50;;;;;;;15.42;63.08;97568.59;224036;1229;139278;-67
2022/09/29 01:17:46;;;;;;;7.90;5.40;;;;;;;15.37;62.98;97580.46;224726;1244;139295;-73
2022/09/29 01:23:26;;;;;;;8.50;5.50;;;;;;;15.37;63.04;97587.14;224234;1251;140042;-71
2022/09/29 01:29:08;;;;;;;8.80;5.70;;;;;;;15.32;62.77;97593.89;224020;1254;139282;-68
2022/09/29 01:34:23;;;;;;;9.20;6.00;;;;;;;15.26;62.53;97601.76;223955;1251;140186;-68
2022/09/29 01:39:35;;;;;;;11.90;6.50;;;;;;;15.20;62.41;97606.33;223931;1257;139805;-68
2022/09/29 01:44:59;;;;;;;11.60;6.70;;;;;;;15.15;62.31;97597.16;224062;1251;139278;-68
2022/09/29 01:50:07;;;;;;;9.80;6.50;;;;;;;15.07;62.21;97597.44;224691;1241;140160;-68
2022/09/29 01:55:25;;;;;;;9.70;6.30;;;;;;;14.97;62.36;97604.52;224029;1251;140012;-69
2022/09/29 02:00:34;;;;;;;9.80;6.00;;;;;;;14.87;62.28;97604.89;224829;1237;139834;-68
2022/09/29 02:05:50;;;;;;;10.90;6.20;;;;;;;14.79;62.41;97606.73;224229;1251;139072;-68
2022/09/29 02:11:05;;;;;;;10.40;6.10;;;;;;;14.78;62.50;97607.77;224171;1251;140301;-68
2022/09/29 02:16:11;;;;;;;;;;;;;;;14.78;62.50;97606.67;224149;1230;139365;-66
2022/09/29 02:21:14;;;;;;;9.40;6.00;;;;;;;14.76;62.69;97618.71;224833;1252;126741;-68
2022/09/29 02:26:18;;;;;;;9.60;5.70;;;;;;;14.74;62.62;97619.96;224786;1236;139183;-66
2022/09/29 02:31:22;;;;;;;8.40;5.40;;;;;;;14.74;62.61;97617.59;224119;1259;139337;-66
2022/09/29 02:36:42;;;;;;;7.70;5.40;;;;;;;14.74;62.34;97618.87;224777;1244;139321;-66
2022/09/29 02:42:04;;;;;;;10.20;5.30;;;;;;;14.72;62.32;97621.82;224074;1245;141155;-65
2022/09/29 02:47:15;;;;;;;7.30;5.10;;;;;;;14.66;62.09;97623.56;224155;1253;139369;-64
2022/09/29 02:52:37;;;;;;;9.30;5.80;;;;;;;14.61;62.02;97631.45;224808;1244;139327;-66
2022/09/29 02:57:40;;;;;;;11.20;5.50;;;;;;;14.63;62.23;97633.77;224015;1251;139180;-71
2022/09/29 03:02:44;;;;;;;8.80;5.70;;;;;;;14.66;62.39;97630.05;224066;1252;140238;-67
2022/09/29 03:07:47;;;;;;;11.90;7.00;;;;;;;14.69;62.37;97632.28;224621;1244;139280;-69
2022/09/29 03:12:50;;;;;;;12.90;6.90;;;;;;;14.68;62.57;97636.10;224713;1251;139496;-68
2022/09/29 03:17:56;;;;;;;11.70;7.20;;;;;;;14.65;62.58;97631.95;224795;1244;139644;-70
2022/09/29 03:22:59;;;;;;;12.30;7.70;;;;;;;14.61;62.75;97626.64;224155;1243;138872;-71
2022/09/29 03:28:02;;;;;;;12.10;7.80;;;;;;;14.55;62.57;97632.23;223998;1256;139232;-67
2022/09/29 03:33:05;;;;;;;10.80;6.90;;;;;;;14.49;62.80;97631.56;224845;1235;140648;-69
2022/09/29 03:38:08;;;;;;;8.70;6.10;;;;;;;14.44;62.78;97635.93;224854;1244;139783;-69
2022/09/29 03:43:11;;;;;;;9.10;6.20;;;;;;;14.36;62.73;97630.85;224020;1254;138911;-70
2022/09/29 03:48:15;;;;;;;8.90;5.50;;;;;;;14.34;62.87;97621.48;224152;1243;141231;-69
2022/09/29 03:53:18;;;;;;;11.70;6.60;;;;;;;14.32;62.80;97623.30;224863;1243;140158;-67
2022/09/29 03:58:21;;;;;;;10.80;6.40;;;;;;;14.29;63.07;97623.06;224083;1248;140163;-69
2022/09/29 04:03:24;;;;;;;9.90;6.40;;;;;;;14.24;63.18;97626.00;224140;1248;139015;-69
2022/09/29 04:08:27;;;;;;;12.10;6.70;;;;;;;14.17;63.40;97627.73;224798;1252;139037;-69
2022/09/29 04:13:30;;;;;;;12.00;7.10;;;;;;;14.11;63.59;97634.07;224078;1251;138967;-68
2022/09/29 04:18:33;;;;;;;11.10;6.90;;;;;;;14.05;63.60;97630.41;224108;1251;139210;-69
2022/09/29 04:23:37;;;;;;;11.20;6.60;;;;;;;13.99;63.62;97628.90;224209;1243;139371;-66
2022/09/29 04:28:40;;;;;;;12.10;6.30;;;;;;;13.94;63.63;97626.27;224123;1253;139836;-67
2022/09/29 04:33:43;;;;;;;10.50;6.90;;;;;;;13.92;63.65;97640.73;224084;1251;139582;-68
2022/09/29 04:38:48;;;;;;;10.80;6.60;;;;;;;13.91;63.71;97649.17;224810;1252;139203;-68
2022/09/29 04:43:51;;;;;;;12.10;6.50;;;;;;;13.89;63.73;97657.50;224051;1253;139637;-67
2022/09/29 04:48:54;;;;;;;10.90;6.20;;;;;;;13.86;63.75;97657.25;224197;1252;139259;-68
2022/09/29 04:53:58;;;;;;;10.60;6.80;;;;;;;13.81;63.79;97655.26;224043;1251;139012;-67
2022/09/29 04:59:01;;;;;;;11.10;6.20;;;;;;;13.73;63.91;97657.08;224739;1241;138986;-66
2022/09/29 05:04:04;;;;;;;10.60;6.80;;;;;;;13.66;64.07;97667.70;224745;1252;138699;-67
2022/09/29 05:09:08;;;;;;;14.50;6.60;;;;;;;13.64;64.07;97677.73;224121;1251;139885;-66
2022/09/29 05:14:10;;;;;;;14.70;6.90;;;;;;;13.69;64.25;97684.80;224010;1253;139821;-67
2022/09/29 05:19:13;;;;;;;13.30;7.50;;;;;;;13.71;64.37;97687.59;224087;1259;139085;-68
2022/09/29 05:24:17;;;;;;;11.20;7.00;;;;;;;13.69;64.36;97691.71;223923;1251;139778;-67
2022/09/29 05:29:20;;;;;;;12.60;7.00;;;;;;;13.68;64.34;97701.26;224233;1251;140481;-67
2022/09/29 05:34:22;;;;;;;14.80;7.30;;;;;;;13.68;64.62;97709.27;224046;1251;138880;-69
2022/09/29 05:39:26;;;;;;;12.80;7.70;;;;;;;13.68;64.25;97711.55;224127;1254;140221;-69
2022/09/29 05:44:28;;;;;;;13.00;6.90;;;;;;;13.66;64.26;97712.83;223974;1247;140517;-69
2022/09/29 05:49:32;;;;;;;12.00;7.80;;;;;;;13.70;64.08;97709.64;223891;1251;141069;-69
2022/09/29 05:54:36;;;;;;;13.60;7.70;;;;;;;13.73;64.15;97706.07;221971;1246;139548;-67
2022/09/29 05:59:40;;;;;;;13.40;7.70;;;;;;;13.74;63.94;97713.86;222004;1243;139053;-67
2022/09/29 06:04:43;;;;;;;12.00;7.80;;;;;;;13.70;63.94;97713.20;221878;1244;138913;-67
2022/09/29 06:09:46;;;;;;;9.60;6.80;;;;;;;13.65;63.97;97708.34;221910;1245;139138;-68
2022/09/29 06:14:51;;;;;;;13.60;8.50;;;;;;;13.60;63.85;97709.70;221864;1244;138783;-68
2022/09/29 06:19:54;;;;;;;14.40;7.40;;;;;;;13.56;64.06;97709.91;222070;1244;139341;-70
2022/09/29 06:25:00;;;;;;;11.60;7.70;;;;;;;13.52;63.91;97714.88;222011;1237;138865;-70
2022/09/29 06:30:08;;;;;;;11.80;7.80;;;;;;;13.47;63.85;97717.25;221903;1244;138738;-69
2022/09/29 06:40:34;;;;;;;15.60;8.60;;;;;;;13.40;64.47;97711.90;221968;1238;140538;-69
2022/09/29 06:45:39;;;;;;;13.70;8.40;;;;;;;13.41;64.52;97710.21;221906;1244;139223;-69
2022/09/29 06:50:44;;;;;;;12.70;8.50;;;;;;;13.43;64.72;97705.40;221977;1245;139165;-70
2022/09/29 06:55:55;;;;;;;14.70;9.00;;;;;;;13.46;65.04;97709.95;222047;1247;138843;-68
2022/09/29 07:01:00;;;;;;;16.30;8.50;;;;;;;13.44;64.96;97717.73;221965;1245;139323;-69
2022/09/29 07:06:06;;;;;;;13.00;8.10;;;;;;;13.42;64.80;97717.55;221903;1244;140247;-69
2022/09/29 07:11:22;;;;;;;12.90;8.30;;;;;;;13.40;64.65;97718.72;222030;1246;138775;-69
2022/09/29 07:16:28;;;;;;;12.90;8.40;;;;;;;13.39;64.89;97715.20;221910;1243;138942;-69
2022/09/29 07:21:33;;;;;;;13.60;8.00;;;;;;;13.40;64.90;97727.27;221831;1249;139002;-70
2022/09/29 07:26:38;;;;;;;13.20;7.70;;;;;;;13.44;64.95;97726.88;221946;1246;140152;-69
2022/09/29 07:31:43;;;;;;;13.40;7.30;;;;;;;13.50;65.28;97727.38;221912;1244;139073;-70
2022/09/29 07:36:55;;;;;;;12.90;7.60;;;;;;;13.56;65.30;97735.02;221987;1243;140776;-70
2022/09/29 07:41:59;;;;;;;11.60;6.80;;;;;;;13.57;65.24;97737.98;221971;1244;139104;-69
2022/09/29 07:47:02;;;;;;;9.40;6.10;;;;;;;13.55;65.32;97747.36;222105;1236;139397;-68
2022/09/29 07:52:07;;;;;;;8.90;5.60;;;;;;;13.52;65.37;97758.73;221911;1241;151451;-69
2022/09/29 07:57:11;;;;;;;6.90;5.40;;;;;;;13.49;65.12;97767.33;221899;1244;139399;-69
2022/09/29 08:02:14;;;;;;;12.00;6.20;;;;;;;13.47;65.19;97768.58;221967;1237;138711;-69
2022/09/29 08:07:19;;;;;;;11.00;5.50;;;;;;;13.50;65.11;97773.74;221929;1244;139892;-68
2022/09/29 08:12:22;;;;;;;7.90;5.10;;;;;;;13.55;65.21;97777.02;222013;1241;139574;-68
2022/09/29 08:17:35;;;;;;;43.20;26.60;;;;;;;13.64;65.40;97764.86;221933;1243;139322;-69
2022/09/29 08:22:38;;;;;;;11.20;6.40;;;;;;;13.77;65.46;97772.92;221928;1247;138929;-68
2022/09/29 08:27:42;;;;;;;7.20;5.90;;;;;;;13.86;65.69;97780.60;221970;1241;139836;-70
2022/09/29 08:32:57;;;;;;;8.20;6.00;;;;;;;13.91;65.32;97783.90;221813;1244;138603;-69
2022/09/29 08:38:04;;;;;;;6.90;5.50;;;;;;;13.84;65.03;97784.50;221813;1250;139736;-69
2022/09/29 08:43:17;;;;;;;13.70;5.70;;;;;;;13.78;65.14;97787.14;221630;1237;140632;-69
2022/09/29 08:48:42;;;;;;;10.50;5.90;;;;;;;13.71;65.06;97798.81;221608;1251;138905;-69
2022/09/29 08:54:07;;;;;;;9.70;4.80;;;;;;;13.68;65.40;97810.44;221888;1238;138961;-70
2022/09/29 08:59:11;;;;;;;12.90;5.10;;;;;;;13.73;65.22;97814.11;222006;1243;139626;-69
2022/09/29 09:04:46;;;;;;;9.80;5.20;;;;;;;13.81;65.33;97820.15;221786;1246;139609;-69
2022/09/29 09:10:06;;;;;;;12.90;5.30;;;;;;;13.90;65.48;97818.03;221908;1247;141892;-70
2022/09/29 09:15:40;;;;;;;14.80;5.00;;;;;;;13.99;65.33;97815.05;221959;1244;139987;-69
2022/09/29 09:21:07;;;;;;;11.10;5.70;;;;;;;14.10;65.47;97806.65;221837;1244;139282;-69
2022/09/29 09:26:12;;;;;;;11.60;5.50;;;;;;;14.24;65.39;97805.51;221732;1245;138856;-69
2022/09/29 09:31:22;;;;;;;9.40;6.00;;;;;;;14.31;65.23;97809.06;221927;1245;138953;-69
2022/09/29 09:36:38;;;;;;;32.40;20.40;;;;;;;14.40;65.33;97811.91;221960;1244;139349;-69
2022/09/29 09:41:50;;;;;;;13.10;6.50;;;;;;;14.50;65.10;97814.06;221850;1245;138919;-68
2022/09/29 09:47:04;;;;;;;12.10;6.10;;;;;;;14.55;65.05;97805.02;222013;1250;140230;-69
2022/09/29 09:52:37;;;;;;;9.10;6.20;;;;;;;14.66;64.93;97809.99;221660;1244;140137;-69
2022/09/29 09:58:19;;;;;;;7.90;5.50;;;;;;;14.79;64.80;97820.30;221876;1244;139347;-69
2022/09/29 10:03:23;;;;;;;11.10;8.40;;;;;;;14.87;64.70;97817.88;221974;1244;139769;-69
2022/09/29 10:08:31;;;;;;;11.10;8.20;;;;;;;14.98;64.79;97820.79;221819;1244;139136;-69
2022/09/29 10:13:35;;;;;;;13.40;8.10;;;;;;;15.01;64.45;97818.14;221821;1237;139726;-68
2022/09/29 10:18:44;;;;;;;15.00;9.30;;;;;;;15.03;64.31;97819.77;221972;1244;139545;-69
2022/09/29 10:23:53;;;;;;;15.50;9.60;;;;;;;15.04;64.44;97818.33;221991;1240;139046;-68
2022/09/29 10:29:01;;;;;;;16.20;10.80;;;;;;;15.06;64.31;97820.27;221992;1245;138796;-70
2022/09/29 10:34:12;;;;;;;15.80;10.30;;;;;;;15.08;63.71;97826.68;222011;1243;140482;-67
2022/09/29 10:39:32;;;;;;;15.90;12.70;;;;;;;15.05;63.63;97836.45;221782;1244;140053;-70
2022/09/29 10:44:38;;;;;;;21.30;11.80;;;;;;;15.03;63.38;97836.00;221851;1245;139896;-68
2022/09/29 10:49:42;;;;;;;16.40;10.90;;;;;;;14.94;63.28;97843.66;221776;1244;139945;-67
2022/09/29 10:55:02;;;;;;;15.20;10.40;;;;;;;14.82;62.85;97846.76;221803;1247;139312;-70
2022/09/29 11:00:34;;;;;;;17.10;10.50;;;;;;;14.71;62.79;97842.02;221783;1243;139112;-67
2022/09/29 11:05:51;;;;;;;15.70;10.20;;;;;;;14.61;62.92;97845.59;222077;1245;138872;-67
2022/09/29 11:11:29;;;;;;;19.20;11.10;;;;;;;14.52;62.91;97858.85;221703;1249;139051;-67
2022/09/29 11:16:36;;;;;;;18.40;10.40;;;;;;;14.44;63.22;97857.21;221000;1249;139203;-68
2022/09/29 11:22:22;;;;;;;16.70;11.00;;;;;;;14.41;63.14;97860.91;221848;1244;139063;-69
2022/09/29 11:27:40;;;;;;;15.40;10.90;;;;;;;14.42;63.18;97868.27;221845;1243;140925;-68
2022/09/29 11:33:11;;;;;;;17.00;10.20;;;;;;;14.47;63.33;97864.85;221895;1244;140107;-68
2022/09/29 11:38:31;;;;;;;13.90;9.40;;;;;;;14.52;63.42;97867.71;222012;1250;139353;-72
2022/09/29 11:44:02;;;;;;;15.20;8.90;;;;;;;14.58;63.38;97871.28;221778;1245;138761;-71
2022/09/29 11:49:24;;;;;;;21.60;13.10;;;;;;;14.79;64.93;97869.02;221550;1246;138827;-73
2022/09/29 11:54:48;;;;;;;13.70;9.20;;;;;;;15.72;67.60;97872.77;221695;1245;139647;-74
2022/09/29 12:00:09;;;;;;;9.90;7.10;;;;;;;16.64;66.52;97867.37;222026;1249;139186;-73
2022/09/29 12:05:41;;;;;;;12.90;7.30;;;;;;;17.01;64.03;97870.40;222026;1243;139057;-72
2022/09/29 12:11:18;;;;;;;13.70;7.50;;;;;;;17.15;62.29;97870.33;222042;1247;140260;-73
2022/09/29 12:16:51;;;;;;;13.90;5.80;;;;;;;17.19;61.31;97865.95;221853;1249;139528;-71
2022/09/29 12:21:59;;;;;;;13.50;6.70;;;;;;;17.16;60.13;97870.49;221811;1248;139762;-74
2022/09/29 12:27:11;;;;;;;10.20;6.00;;;;;;;17.04;59.25;97872.95;221940;1244;140377;-71
2022/09/29 12:32:31;;;;;;;13.70;5.80;;;;;;;16.86;59.00;97872.91;221941;1250;140225;-73
2022/09/29 12:38:07;;;;;;;11.20;5.70;;;;;;;16.74;58.99;97872.73;221920;1243;139200;-71
2022/09/29 12:43:32;;;;;;;9.20;4.90;;;;;;;16.69;58.65;97883.67;221824;1244;138931;-72
2022/09/29 12:48:55;;;;;;;8.90;4.70;;;;;;;16.59;58.25;97890.82;221966;1248;139353;-69
2022/09/29 12:54:27;;;;;;;10.40;4.60;;;;;;;16.57;58.52;97888.38;221833;1243;139018;-72
2022/09/29 13:00:03;;;;;;;13.30;5.30;;;;;;;16.52;57.88;97888.36;221974;1243;138815;-70
2022/09/29 13:05:13;;;;;;;12.60;5.40;;;;;;;16.36;57.49;97888.77;222048;1250;141008;-70
2022/09/29 13:10:37;;;;;;;10.30;4.10;;;;;;;16.32;57.69;97896.89;221884;1250;138902;-70
2022/09/29 13:16:12;;;;;;;9.40;3.00;;;;;;;16.20;57.23;97897.40;221653;1247;140197;-71
2022/09/29 13:21:55;;;;;;;10.00;3.00;;;;;;;16.20;57.55;97896.36;221828;1246;139178;-72
2022/09/29 13:27:11;;;;;;;4.30;2.60;;;;;;;16.20;57.31;97891.14;221913;1243;138837;-70
2022/09/29 13:32:16;;;;;;;4.50;2.40;;;;;;;16.05;57.06;97895.00;221915;1244;138957;-70
2022/09/29 13:37:24;;;;;;;6.50;2.00;;;;;;;15.76;56.89;97902.48;222011;1250;138728;-70
2022/09/29 13:42:39;;;;;;;5.70;2.20;;;;;;;15.54;57.45;97906.24;222046;1244;138659;-70
2022/09/29 13:47:48;;;;;;;12.30;4.10;;;;;;;15.41;57.87;97907.59;221987;1243;139421;-71
2022/09/29 13:52:51;;;;;;;7.90;3.80;;;;;;;15.32;57.91;97916.65;221954;1250;139489;-69
2022/09/29 13:57:56;;;;;;;6.00;3.40;;;;;;;15.15;57.76;97914.79;221881;1248;138697;-70
2022/09/29 14:03:04;;;;;;;6.20;3.40;;;;;;;14.96;58.02;97922.71;221932;1243;138666;-67
2022/09/29 14:08:07;;;;;;;8.50;2.60;;;;;;;14.87;58.41;97927.73;221710;1249;139722;-67
2022/09/29 14:13:28;;;;;;;5.50;2.60;;;;;;;14.76;58.64;97932.02;221915;1243;139281;-67
2022/09/29 14:18:40;;;;;;;5.10;3.00;;;;;;;14.78;59.05;97933.41;221913;1250;138614;-69
2022/09/29 14:23:50;;;;;;;8.30;3.30;;;;;;;14.72;58.99;97932.81;222047;1247;139329;-67
2022/09/29 14:28:56;;;;;;;10.00;5.20;;;;;;;14.65;59.10;97946.42;221867;1250;139112;-67
2022/09/29 14:34:02;;;;;;;12.80;4.80;;;;;;;14.60;59.19;97954.77;221773;1243;140103;-68
2022/09/29 14:39:08;;;;;;;11.90;4.40;;;;;;;14.56;59.15;97953.23;221832;1250;139402;-68
2022/09/29 14:56:13;;;;;;;5.70;3.10;;;;;;;14.52;59.80;97964.38;221758;1243;140286;-68
2022/09/29 15:01:27;;;;;;;2.80;1.70;;;;;;;14.60;59.97;97963.38;221498;1246;140090;-68
2022/09/29 15:06:31;;;;;;;4.10;2.00;;;;;;;14.69;60.23;97963.27;221744;1246;138892;-68
2022/09/29 15:11:42;;;;;;;5.00;1.90;;;;;;;14.76;60.27;97969.35;222001;1243;138864;-67
2022/09/29 15:16:52;;;;;;;5.30;2.20;;;;;;;14.77;59.99;97978.86;221942;1247;138938;-68
2022/09/29 15:22:14;;;;;;;127.30;76.20;;;;;;;14.76;59.80;97991.85;222000;1244;139139;-69
2022/09/29 15:27:19;;;;;;;16.00;5.80;;;;;;;14.77;59.93;97992.98;221836;1249;139508;-67
2022/09/29 15:32:27;;;;;;;6.30;2.20;;;;;;;14.76;59.59;97996.96;221909;1248;139920;-67
2022/09/29 15:37:57;;;;;;;7.70;2.30;;;;;;;14.75;59.38;97999.98;221942;1247;139023;-67
2022/09/29 15:43:02;;;;;;;8.80;2.50;;;;;;;14.71;59.10;97996.60;221573;1247;138627;-66
2022/09/29 15:48:15;;;;;;;10.00;2.00;;;;;;;14.64;59.27;98000.23;221951;1248;139070;-66
2022/09/29 15:53:20;;;;;;;5.70;2.60;;;;;;;14.58;59.04;98001.24;222103;1243;138906;-67
2022/09/29 15:58:24;;;;;;;12.20;2.50;;;;;;;14.46;58.97;98005.58;221898;1246;139660;-68
2022/09/29 16:03:52;;;;;;;8.60;2.20;;;;;;;14.41;59.13;98012.73;221895;1244;139234;-64
2022/09/29 16:09:14;;;;;;;5.50;2.50;;;;;;;14.45;59.35;98014.04;221829;1244;139191;-68
2022/09/29 16:14:27;;;;;;;11.70;3.30;;;;;;;14.40;59.42;98017.01;221871;1246;138910;-66
2022/09/29 16:19:33;;;;;;;10.10;3.40;;;;;;;14.40;59.59;98015.15;221913;1246;138972;-66
2022/09/29 16:24:52;;;;;;;8.60;3.60;;;;;;;14.40;59.74;98016.26;221903;1246;139206;-67
2022/09/29 16:30:17;;;;;;;10.00;4.00;;;;;;;14.38;59.59;98019.86;222099;1243;139208;-66
2022/09/29 16:35:47;;;;;;;11.30;4.50;;;;;;;14.33;59.59;98029.63;222085;1243;139003;-65
2022/09/29 16:40:52;;;;;;;11.00;4.40;;;;;;;14.35;59.60;98032.83;222012;1243;139241;-66
2022/09/29 16:45:59;;;;;;;11.90;4.80;;;;;;;14.24;59.31;98028.86;222040;1243;139308;-65
2022/09/29 16:51:13;;;;;;;11.10;4.00;;;;;;;14.09;59.39;98033.63;221916;1243;140026;-65
2022/09/29 16:56:36;;;;;;;9.70;3.20;;;;;;;14.02;59.74;98049.84;221878;1245;139208;-66
2022/09/29 17:01:42;;;;;;;11.40;3.30;;;;;;;14.02;59.91;98060.55;221876;1247;139557;-66
2022/09/29 17:06:48;;;;;;;11.40;3.80;;;;;;;13.93;59.88;98069.54;221828;1244;139577;-67
2022/09/29 17:11:52;;;;;;;7.30;3.00;;;;;;;13.89;60.20;98066.11;221817;1243;139508;-65
2022/09/29 17:16:57;;;;;;;7.60;3.00;;;;;;;13.92;60.57;98070.17;221954;1243;138938;-66
2022/09/29 17:22:01;;;;;;;8.60;3.60;;;;;;;13.91;60.56;98075.08;221868;1244;139268;-65
2022/09/29 17:32:53;;;;;;;12.50;4.00;;;;;;;13.87;60.67;98087.75;220936;1250;139726;-65
2022/09/29 17:37:57;;;;;;;10.50;4.50;;;;;;;13.89;60.91;98095.38;221826;1247;140010;-66
2022/09/29 17:43:02;;;;;;;7.40;4.50;;;;;;;13.91;61.15;98100.92;221758;1244;139201;-67
2022/09/29 17:48:06;;;;;;;8.10;5.50;;;;;;;13.93;61.25;98109.65;221710;1245;139209;-66
2022/09/29 17:53:12;;;;;;;7.60;5.70;;;;;;;13.96;61.48;98112.25;221622;1243;139309;-65
2022/09/29 17:58:19;;;;;;;8.90;5.40;;;;;;;13.92;61.27;98111.88;221809;1243;139266;-65
2022/09/29 18:03:25;;;;;;;10.00;6.90;;;;;;;13.82;61.27;98114.56;221955;1248;139669;-65
2022/09/29 18:08:28;;;;;;;8.40;6.10;;;;;;;13.72;61.36;98115.30;221926;1243;139029;-65
2022/09/29 18:13:32;;;;;;;9.90;6.70;;;;;;;13.64;61.46;98114.24;221928;1243;139507;-66
2022/09/29 18:18:36;;;;;;;9.30;6.90;;;;;;;13.56;61.93;98111.73;221781;1248;138876;-67
2022/09/29 18:23:41;;;;;;;13.10;6.90;;;;;;;13.46;61.94;98113.83;221793;1243;138833;-66
2022/09/29 18:28:47;;;;;;;9.70;6.20;;;;;;;13.42;62.17;98112.92;221882;1244;139693;-66
2022/09/29 18:33:54;;;;;;;11.40;6.10;;;;;;;13.42;62.33;98107.98;221788;1243;138905;-65
2022/09/29 18:38:59;;;;;;;10.90;6.30;;;;;;;13.41;62.55;98106.67;221898;1246;140157;-65
2022/09/29 18:44:13;;;;;;;13.30;6.00;;;;;;;13.36;62.72;98097.84;221863;1244;138872;-67
2022/09/29 18:49:20;;;;;;;11.10;5.80;;;;;;;13.31;62.75;98096.30;221820;1244;139192;-66
2022/09/29 18:54:24;;;;;;;9.70;5.00;;;;;;;13.24;63.02;98097.66;221832;1247;139891;-66
2022/09/29 18:59:28;;;;;;;13.60;5.00;;;;;;;13.18;62.93;98096.05;222077;1243;139970;-66
2022/09/29 19:04:31;;;;;;;10.10;5.10;;;;;;;13.10;63.06;98097.38;221952;1244;138719;-67
2022/09/29 19:09:37;;;;;;;10.00;6.10;;;;;;;13.04;63.35;98098.81;221979;1244;139597;-67
2022/09/29 19:14:44;;;;;;;12.50;6.80;;;;;;;13.02;63.19;98101.16;221893;1243;139853;-67
2022/09/29 19:19:48;;;;;;;15.30;7.70;;;;;;;13.03;63.53;98111.21;221983;1241;139261;-67
2022/09/29 19:24:53;;;;;;;;;;;;;;;13.02;63.57;98122.83;221955;1243;139707;-67
2022/09/29 19:29:59;;;;;;;12.80;7.30;;;;;;;13.01;63.61;98131.63;222155;1247;126039;-67
2022/09/29 19:35:10;;;;;;;14.00;7.40;;;;;;;12.96;63.38;98135.98;221852;1243;138872;-67
2022/09/29 19:40:22;;;;;;;14.70;8.20;;;;;;;12.87;63.50;98142.27;221928;1245;139438;-66
2022/09/29 19:45:26;;;;;;;15.70;8.80;;;;;;;12.80;63.72;98141.65;221969;1243;139104;-66
2022/09/29 19:55:53;;;;;;;14.70;9.00;;;;;;;12.66;63.89;98163.67;221848;1241;138901;-65
2022/09/29 20:00:58;;;;;;;15.50;8.40;;;;;;;12.61;63.78;98171.73;221771;1244;139986;-65
2022/09/29 20:06:05;;;;;;;14.10;9.00;;;;;;;12.62;63.91;98176.38;223139;1244;139511;-67
2022/09/29 20:11:09;;;;;;;17.20;10.80;;;;;;;12.62;64.10;98170.66;224714;1244;139639;-66
2022/09/29 20:16:16;;;;;;;21.00;11.00;;;;;;;12.61;64.36;98179.40;223983;1237;139581;-67
2022/09/29 20:21:20;;;;;;;16.20;10.20;;;;;;;12.60;63.98;98173.80;224764;1237;140202;-67
2022/09/29 20:26:26;;;;;;;18.90;11.30;;;;;;;12.56;64.04;98178.05;224049;1244;140301;-67
2022/09/29 20:31:30;;;;;;;16.90;11.00;;;;;;;12.48;63.98;98180.79;224105;1251;140939;-67
2022/09/29 20:36:34;;;;;;;16.80;12.00;;;;;;;12.43;64.04;98188.24;224050;1250;139748;-67
2022/09/29 20:41:37;;;;;;;17.10;11.50;;;;;;;12.39;64.13;98194.22;224079;1259;139628;-67
2022/09/29 20:46:40;;;;;;;18.60;12.10;;;;;;;12.40;64.22;98193.81;223943;1248;140458;-66
2022/09/29 20:51:44;;;;;;;20.60;12.20;;;;;;;12.44;64.20;98197.89;224702;1244;142528;-66
2022/09/29 20:56:49;;;;;;;19.70;13.00;;;;;;;12.45;64.14;98209.19;224800;1238;139888;-65
2022/09/29 21:01:52;;;;;;;23.10;14.00;;;;;;;12.41;64.26;98212.02;224829;1236;139807;-65
2022/09/29 21:06:57;;;;;;;21.90;14.10;;;;;;;12.35;64.08;98226.38;224740;1236;139020;-65
2022/09/29 21:12:01;;;;;;;21.90;13.40;;;;;;;12.30;64.19;98226.42;224141;1246;140370;-65
2022/09/29 21:17:04;;;;;;;17.90;12.90;;;;;;;12.29;64.31;98239.91;224055;1248;138990;-65
2022/09/29 21:22:08;;;;;;;17.40;12.30;;;;;;;12.28;64.45;98247.59;224724;1240;140085;-65
2022/09/29 21:27:11;;;;;;;19.70;12.10;;;;;;;12.31;64.46;98248.60;224072;1251;140588;-65
2022/09/29 21:32:16;;;;;;;16.80;11.70;;;;;;;12.38;64.60;98256.09;224773;1237;139771;-65
2022/09/29 21:37:19;;;;;;;18.90;12.40;;;;;;;12.43;64.90;98255.65;224077;1247;140444;-65
2022/09/29 21:42:22;;;;;;;18.60;13.00;;;;;;;12.46;65.06;98249.52;224161;1245;139817;-64
2022/09/29 21:48:06;;;;;;;20.90;12.50;;;;;;;12.48;64.95;98239.75;224791;1244;138972;-65
2022/09/29 21:52:48;;;;;;;21.70;13.10;;;;;;;12.50;65.12;98239.02;224634;1251;139198;-66
2022/09/29 21:57:52;;;;;;;18.40;12.30;;;;;;;12.51;65.00;98236.11;224100;1250;139144;-68
2022/09/29 22:45:38;;;;;;;18.60;12.50;;;;;;;12.49;65.09;98245.91;223972;1244;139912;-65
2022/09/29 22:50:46;;;;;;;18.00;13.10;;;;;;;12.47;65.24;98250.20;224002;1244;139760;-67
2022/09/29 22:55:49;;;;;;;20.30;12.70;;;;;;;12.50;65.50;98250.41;224704;1244;142284;-67
2022/09/29 23:01:05;;;;;;;15.80;11.90;;;;;;;12.57;65.31;98246.52;224028;1253;140507;-67
2022/09/29 23:06:16;;;;;;;17.30;11.90;;;;;;;12.61;65.41;98253.13;224130;1257;139722;-68
2022/09/29 23:11:19;;;;;;;15.90;12.50;;;;;;;12.66;65.64;98258.51;224011;1251;139033;-67
2022/09/29 23:16:22;;;;;;;16.50;13.10;;;;;;;12.67;65.54;98269.98;224122;1258;140439;-67
2022/09/29 23:21:25;;;;;;;16.40;11.90;;;;;;;12.67;65.66;98266.66;224717;1242;139757;-66
2022/09/29 23:26:29;;;;;;;16.70;12.10;;;;;;;12.65;65.47;98267.19;224098;1251;139241;-67
2022/09/29 23:31:34;;;;;;;20.50;13.20;;;;;;;12.64;65.54;98268.86;224673;1244;139640;-67
2022/09/29 23:36:37;;;;;;;19.00;13.70;;;;;;;12.68;65.64;98265.86;224718;1241;140670;-67
2022/09/29 23:41:43;;;;;;;19.00;13.30;;;;;;;12.73;65.60;98262.75;224797;1244;139935;-67
2022/09/29 23:46:46;;;;;;;;;;;;;;;12.74;65.65;98258.41;224007;1250;139349;-68
2022/09/29 23:51:54;;;;;;;20.50;13.20;;;;;;;12.74;65.69;98257.70;224725;1244;125242;-67
2022/09/29 23:56:57;;;;;;;15.80;13.10;;;;;;;12.74;65.85;98256.96;224170;1248;140027;-65
